Time;durP1;ratioP1;P1;durP2;ratioP2;P2;SDS_P1;SDS_P2;PMS_P1;PMS_P2;Temp;Humidity;BMP_temperature;BMP_pressure;BME280_temperature;BME280_humidity;BME280_pressure;Samples;Min_cycle;Max_cycle;Signal;HPM_P1;HPM_P2
2022/10/24 00:01:14;;;;;;;2.70;1.93;;;17.10;99.90;;;17.55;nan;100125.16;5014436;28;20663;-64
2022/10/24 00:03:42;;;;;;;5.80;2.10;;;17.10;99.90;;;17.51;nan;100123.03;5014021;28;20657;-64
2022/10/24 00:06:11;;;;;;;4.87;1.97;;;17.00;99.90;;;17.55;nan;100124.34;5014258;28;20638;-65
2022/10/24 00:08:40;;;;;;;4.27;2.37;;;17.10;99.90;;;17.62;nan;100126.16;5013210;28;21000;-64
2022/10/24 00:11:13;;;;;;;2.63;2.20;;;17.00;99.90;;;17.59;nan;100121.19;5004824;28;21042;-64
2022/10/24 00:13:42;;;;;;;6.50;2.10;;;17.10;99.90;;;17.49;nan;100122.34;4999635;28;20708;-65
2022/10/24 00:16:10;;;;;;;3.10;2.00;;;17.10;99.90;;;17.38;nan;100118.22;5014782;28;20636;-64
2022/10/24 00:18:38;;;;;;;8.03;1.80;;;17.00;99.90;;;17.35;nan;100120.38;5013366;28;20614;-62
2022/10/24 00:21:05;;;;;;;3.47;2.00;;;17.00;99.90;;;17.44;nan;100124.66;5013770;28;20648;-65
2022/10/24 00:23:32;;;;;;;8.17;2.60;;;17.00;99.90;;;17.49;nan;100122.34;5014554;28;20648;-64
2022/10/24 00:26:00;;;;;;;5.10;2.57;;;17.00;99.90;;;17.45;nan;100121.03;5013304;28;20633;-64
2022/10/24 00:28:29;;;;;;;2.47;2.00;;;16.90;99.90;;;17.44;nan;100119.41;5012667;28;20636;-65
2022/10/24 00:30:56;;;;;;;6.60;2.30;;;17.00;99.90;;;17.41;nan;100115.28;5006192;28;20645;-64
2022/10/24 00:33:25;;;;;;;2.63;2.40;;;16.90;99.90;;;17.43;nan;100112.47;5009692;28;21266;-64
2022/10/24 00:35:52;;;;;;;4.40;2.33;;;16.90;99.90;;;17.44;nan;100108.84;5012450;28;20640;-61
2022/10/24 00:38:19;;;;;;;3.10;2.00;;;17.00;99.90;;;17.40;nan;100107.53;5028591;28;20621;-64
2022/10/24 00:40:46;;;;;;;2.60;1.97;;;16.90;99.90;;;17.37;nan;100102.59;5011001;28;20646;-65
2022/10/24 00:43:16;;;;;;;4.90;2.10;;;16.90;99.90;;;17.44;nan;100109.66;5012092;28;21217;-64
2022/10/24 00:45:51;;;;;;;7.67;2.10;;;16.90;99.90;;;17.46;nan;100099.75;5009686;28;21738;-66
2022/10/24 00:48:23;;;;;;;3.40;1.83;;;16.90;99.90;;;17.37;nan;100107.84;5012000;28;20647;-65
2022/10/24 00:50:56;;;;;;;2.70;2.13;;;16.90;99.90;;;17.36;nan;100106.19;5011760;28;21071;-64
2022/10/24 00:53:24;;;;;;;4.97;1.67;;;16.90;99.90;;;17.26;nan;100109.00;5011933;28;20676;-64
2022/10/24 00:55:57;;;;;;;6.57;1.90;;;16.90;99.90;;;17.18;nan;100102.91;5012077;28;20610;-64
2022/10/24 00:58:29;;;;;;;2.97;2.17;;;16.80;99.90;;;17.29;nan;100099.97;5028262;28;20629;-65
2022/10/24 01:00:56;;;;;;;4.43;1.90;;;16.80;99.90;;;17.40;nan;100108.34;5011490;28;20625;-63
2022/10/24 01:03:23;;;;;;;6.57;2.00;;;16.90;99.90;;;17.30;nan;100104.22;5012413;28;20721;-64
2022/10/24 01:06:17;;;;;;;12.53;2.10;;;16.90;99.90;;;17.37;nan;100102.59;5005041;28;20961;-65
2022/10/24 01:09:11;;;;;;;4.10;1.77;;;16.90;99.90;;;17.20;nan;100099.13;5001462;28;20656;-64
2022/10/24 01:11:53;;;;;;;3.17;2.37;;;16.90;99.90;;;17.26;nan;100093.19;4996454;28;20633;-65
2022/10/24 01:14:44;;;;;;;2.60;1.70;;;16.80;99.90;;;17.25;nan;100103.91;5011269;28;21240;-64
2022/10/24 01:17:28;;;;;;;2.67;1.90;;;16.80;99.90;;;17.33;nan;100096.00;5012229;28;20619;-63
2022/10/24 01:20:03;;;;;;;2.33;1.60;;;16.80;99.90;;;17.45;nan;100097.28;5010749;28;21209;-64
2022/10/24 01:23:03;;;;;;;6.00;2.20;;;16.90;99.90;;;17.47;nan;100095.31;5002982;28;20665;-63
2022/10/24 01:26:06;;;;;;;1.70;1.60;;;16.90;99.90;;;17.40;nan;100094.34;4998434;28;20680;-64
2022/10/24 01:29:03;;;;;;;3.23;1.80;;;17.00;99.90;;;17.26;nan;100098.47;4990631;28;20964;-64
2022/10/24 01:31:44;;;;;;;2.97;1.70;;;16.90;99.90;;;17.35;nan;100088.75;5005520;28;20673;-65
2022/10/24 01:34:27;;;;;;;3.00;1.60;;;16.90;99.90;;;17.28;nan;100083.31;5011638;28;20723;-63
2022/10/24 01:37:05;;;;;;;2.50;1.57;;;16.90;99.90;;;17.45;nan;100076.19;4993202;28;20623;-65
2022/10/24 01:39:40;;;;;;;2.40;1.53;;;16.90;99.90;;;17.39;nan;100082.13;4996478;28;20630;-65
2022/10/24 01:42:09;;;;;;;2.50;1.60;;;16.90;99.90;;;17.44;nan;100072.72;5027339;28;20621;-65
2022/10/24 01:44:42;;;;;;;5.97;1.50;;;16.90;99.90;;;17.36;nan;100077.19;5010697;28;21193;-64
2022/10/24 01:47:17;;;;;;;1.93;1.80;;;16.90;99.90;;;17.41;nan;100072.25;4995170;28;20626;-64
2022/10/24 01:49:53;;;;;;;10.00;1.90;;;16.90;99.90;;;17.38;nan;100069.94;5009084;28;21000;-64
2022/10/24 01:52:20;;;;;;;2.97;2.13;;;16.90;99.90;;;17.41;nan;100080.16;5009439;28;20651;-65
2022/10/24 01:54:48;;;;;;;2.90;2.20;;;16.90;99.90;;;17.36;nan;100069.28;5010135;28;20602;-65
2022/10/24 01:57:15;;;;;;;9.03;2.77;;;16.80;99.90;;;17.37;nan;100076.22;4994520;28;20623;-62
2022/10/24 01:59:47;;;;;;;4.83;2.10;;;16.90;99.90;;;17.33;nan;100080.19;4991957;28;20645;-64
2022/10/24 02:02:25;;;;;;;3.70;2.10;;;16.90;99.90;;;17.37;nan;100071.78;4999022;28;20624;-65
2022/10/24 02:05:23;;;;;;;2.13;1.80;;;16.90;99.90;;;17.34;nan;100072.09;5010617;28;20633;-65
2022/10/24 02:07:55;;;;;;;3.40;1.90;;;16.80;99.90;;;17.27;nan;100086.13;5003389;28;20645;-65
2022/10/24 02:10:31;;;;;;;2.93;1.40;;;16.80;99.90;;;17.33;nan;100081.00;5011376;28;20642;-65
2022/10/24 02:13:17;;;;;;;4.60;2.00;;;16.80;99.90;;;17.39;nan;100079.50;5010525;28;20680;-64
2022/10/24 02:15:51;;;;;;;7.83;2.00;;;16.80;99.90;;;17.41;nan;100074.88;5009206;28;20660;-64
2022/10/24 02:18:19;;;;;;;7.30;2.10;;;16.90;99.90;;;17.33;nan;100088.09;5010781;28;20764;-64
2022/10/24 02:20:56;;;;;;;4.03;1.90;;;16.80;99.90;;;17.14;nan;100081.34;5010408;28;20610;-64
2022/10/24 02:23:39;;;;;;;3.23;2.30;;;16.80;99.90;;;17.21;nan;100081.47;5010992;28;21217;-63
2022/10/24 02:26:20;;;;;;;6.10;1.70;;;16.70;99.90;;;17.14;nan;100078.72;5009506;28;20648;-65
2022/10/24 02:28:52;;;;;;;1.83;1.70;;;16.70;99.90;;;17.20;nan;100080.69;5003538;28;20627;-65
2022/10/24 02:31:23;;;;;;;10.70;2.20;;;16.70;99.90;;;17.19;nan;100072.91;4993993;28;20641;-65
2022/10/24 02:33:52;;;;;;;4.13;1.93;;;16.70;99.90;;;17.32;nan;100078.50;5000425;28;20673;-65
2022/10/24 02:36:25;;;;;;;1.90;1.80;;;16.70;99.90;;;17.24;nan;100075.88;5037063;28;21205;-64
2022/10/24 02:38:54;;;;;;;6.90;2.00;;;16.80;99.90;;;17.29;nan;100073.59;4989291;28;20620;-64
2022/10/24 02:41:27;;;;;;;5.60;2.97;;;16.70;99.90;;;17.21;nan;100073.56;5025337;28;20629;-64
2022/10/24 02:43:56;;;;;;;4.10;1.50;;;16.70;99.90;;;17.19;nan;100065.84;5009797;28;21245;-64
2022/10/24 02:46:24;;;;;;;5.23;1.50;;;16.70;99.90;;;17.14;nan;100070.81;5009823;28;20638;-64
2022/10/24 02:48:59;;;;;;;5.80;2.10;;;16.70;99.90;;;17.13;nan;100076.22;5007856;28;21232;-63
2022/10/24 02:51:31;;;;;;;5.13;1.50;;;16.70;99.90;;;17.10;nan;100073.94;5009395;28;20624;-65
2022/10/24 02:54:00;;;;;;;5.47;2.40;;;16.70;99.90;;;17.06;nan;100074.25;5008829;28;20898;-63
2022/10/24 02:56:28;;;;;;;4.00;1.97;;;16.70;99.90;;;17.13;nan;100066.50;5011770;28;20625;-63
2022/10/24 02:58:55;;;;;;;2.53;2.00;;;16.70;99.90;;;17.26;nan;100061.56;5009534;28;20687;-63
2022/10/24 03:01:22;;;;;;;9.13;1.40;;;16.70;99.90;;;17.10;nan;100063.38;5011594;28;20626;-63
2022/10/24 03:03:50;;;;;;;2.90;1.43;;;16.70;99.90;;;16.96;nan;100056.97;5009932;28;20658;-62
2022/10/24 03:06:17;;;;;;;3.17;1.50;;;16.60;99.90;;;16.96;nan;100054.31;5001191;28;20665;-63
2022/10/24 03:08:43;;;;;;;4.80;1.70;;;16.60;99.90;;;16.95;nan;100055.31;4995178;28;20626;-62
2022/10/24 03:11:11;;;;;;;4.27;1.80;;;16.60;99.90;;;16.98;nan;100066.34;5001115;28;20644;-62
2022/10/24 03:13:38;;;;;;;8.17;1.90;;;16.50;99.90;;;17.18;nan;100081.84;5011641;28;20677;-63
2022/10/24 03:16:05;;;;;;;3.57;1.80;;;16.60;99.90;;;17.02;nan;100075.56;5010595;28;21161;-64
2022/10/24 03:18:34;;;;;;;8.67;2.63;;;16.60;99.90;;;17.06;nan;100079.53;5011615;28;20629;-65
2022/10/24 03:21:01;;;;;;;3.07;1.50;;;16.60;99.90;;;17.08;nan;100085.44;5009740;28;20640;-65
2022/10/24 03:23:29;;;;;;;2.83;1.90;;;16.60;99.90;;;17.19;nan;100086.94;5008274;28;21245;-65
2022/10/24 03:26:00;;;;;;;7.20;2.50;;;16.60;99.90;;;17.16;nan;100092.56;5010542;28;20621;-64
2022/10/24 03:28:27;;;;;;;14.57;1.90;;;16.60;99.90;;;17.08;nan;100092.53;5010592;28;20991;-64
2022/10/24 03:30:57;;;;;;;2.57;2.17;;;16.60;99.90;;;17.00;nan;100098.63;5025831;28;20634;-64
2022/10/24 03:33:26;;;;;;;1.73;1.63;;;16.50;99.90;;;17.04;nan;100097.31;5025596;28;20672;-63
2022/10/24 03:35:54;;;;;;;4.40;1.73;;;16.50;99.90;;;17.13;nan;100102.59;5014065;28;20638;-65
2022/10/24 03:38:22;;;;;;;4.10;1.90;;;16.60;99.90;;;17.16;nan;100107.53;5028811;28;20642;-65
2022/10/24 03:40:49;;;;;;;1.70;1.60;;;16.60;99.90;;;17.13;nan;100094.66;5014139;28;21009;-65
2022/10/24 03:43:19;;;;;;;3.00;1.73;;;16.60;99.90;;;16.56;nan;100094.63;5012700;28;20649;-65
2022/10/24 03:45:47;;;;;;;3.50;1.40;;;16.40;99.90;;;16.67;nan;100098.75;5001904;28;21213;-64
2022/10/24 03:48:14;;;;;;;8.50;2.47;;;16.30;99.90;;;16.45;nan;100094.88;5011092;28;20634;-64
2022/10/24 03:50:41;;;;;;;2.80;2.00;;;16.20;99.90;;;16.50;nan;100102.34;5011302;28;20632;-65
2022/10/24 03:53:11;;;;;;;1.50;1.40;;;16.10;99.90;;;16.45;nan;100096.69;5012112;28;20692;-66
2022/10/24 03:55:45;;;;;;;7.00;1.93;;;16.10;99.90;;;16.37;nan;100097.50;5007167;28;21008;-68
2022/10/24 03:58:15;;;;;;;2.07;1.90;;;16.10;99.90;;;16.62;nan;100096.63;5003129;28;20629;-64
2022/10/24 04:00:42;;;;;;;1.87;1.60;;;16.10;99.90;;;16.63;nan;100103.50;5001086;28;20630;-65
2022/10/24 04:03:09;;;;;;;1.47;1.37;;;16.10;99.90;;;16.43;nan;100099.50;5007173;28;20665;-67
2022/10/24 04:05:36;;;;;;;5.73;2.33;;;16.10;99.90;;;16.55;nan;100090.34;5012739;28;20673;-63
2022/10/24 04:08:09;;;;;;;6.17;2.07;;;16.10;99.90;;;16.50;nan;100092.66;5013330;28;20655;-64
2022/10/24 04:10:35;;;;;;;6.83;1.70;;;16.10;99.90;;;16.62;nan;100083.44;5013042;28;20615;-64
2022/10/24 04:13:02;;;;;;;2.10;1.60;;;16.10;99.90;;;16.59;nan;100075.84;5005358;28;20662;-65
2022/10/24 04:15:30;;;;;;;4.87;1.60;;;16.20;99.90;;;16.44;nan;100080.06;4993411;28;20641;-66
2022/10/24 04:17:57;;;;;;;7.20;2.60;;;16.10;99.90;;;16.61;nan;100088.88;4994752;28;20626;-64
2022/10/24 04:20:23;;;;;;;3.63;2.00;;;16.10;99.90;;;16.64;nan;100094.63;5014509;28;20683;-65
2022/10/24 04:22:50;;;;;;;3.87;2.30;;;16.10;99.90;;;16.64;nan;100099.06;5007170;28;21267;-64
2022/10/24 04:25:18;;;;;;;5.83;2.83;;;16.10;99.90;;;16.60;nan;100098.59;5004690;28;21093;-66
2022/10/24 04:27:45;;;;;;;7.83;2.27;;;16.10;99.90;;;16.66;nan;100100.56;5012667;28;21185;-63
2022/10/24 04:30:13;;;;;;;3.60;1.97;;;16.10;99.90;;;16.65;nan;100103.38;5012795;28;20651;-64
2022/10/24 04:32:43;;;;;;;2.50;1.80;;;16.10;99.90;;;16.67;nan;100104.88;5011535;28;20657;-63
2022/10/24 04:35:11;;;;;;;10.83;1.73;;;16.20;99.90;;;16.63;nan;100103.50;5012511;28;20756;-63
2022/10/24 04:37:38;;;;;;;11.77;2.10;;;16.20;99.90;;;16.56;nan;100105.16;5007867;28;21027;-62
2022/10/24 04:40:05;;;;;;;4.40;1.83;;;16.20;99.90;;;16.60;nan;100097.75;5011572;28;20629;-63
2022/10/24 04:42:32;;;;;;;9.10;2.23;;;16.20;99.90;;;16.65;nan;100088.38;4993183;28;21019;-63
2022/10/24 04:44:59;;;;;;;3.67;1.43;;;16.20;99.90;;;16.55;nan;100089.50;5002305;28;20638;-64
2022/10/24 04:47:26;;;;;;;7.20;1.90;;;16.10;99.90;;;16.65;nan;100090.19;5013893;28;21239;-64
2022/10/24 04:49:53;;;;;;;1.83;1.60;;;16.10;99.90;;;16.80;nan;100092.00;5012397;28;20617;-63
2022/10/24 04:52:20;;;;;;;4.20;2.27;;;16.20;99.90;;;16.80;nan;100094.66;5011621;28;21205;-64
2022/10/24 04:54:47;;;;;;;13.20;2.07;;;16.20;99.90;;;16.70;nan;100080.81;5013486;28;20657;-63
2022/10/24 04:57:14;;;;;;;5.10;1.80;;;16.20;99.90;;;16.67;nan;100083.78;5013029;28;20667;-66
2022/10/24 04:59:41;;;;;;;3.53;2.13;;;16.20;99.90;;;16.59;nan;100096.91;5012549;28;20638;-64
2022/10/24 05:02:08;;;;;;;3.00;1.87;;;16.10;99.90;;;16.53;nan;100091.47;5010851;28;20648;-64
2022/10/24 05:04:35;;;;;;;2.80;2.17;;;16.10;99.90;;;16.47;nan;100092.91;5012333;28;20628;-64
2022/10/24 05:07:02;;;;;;;5.93;2.03;;;16.10;99.90;;;16.49;nan;100098.00;5010184;28;20645;-63
2022/10/24 05:09:29;;;;;;;3.73;2.03;;;16.10;99.90;;;16.46;nan;100106.25;5012201;28;20713;-64
2022/10/24 05:11:56;;;;;;;8.00;2.40;;;16.10;99.90;;;16.44;nan;100103.75;5011739;28;20621;-66
2022/10/24 05:14:23;;;;;;;7.20;1.97;;;16.00;99.90;;;16.53;nan;100104.63;5012075;28;20679;-64
2022/10/24 05:16:50;;;;;;;3.53;1.77;;;16.00;99.90;;;16.39;nan;100099.97;5012297;28;20626;-65
2022/10/24 05:19:18;;;;;;;2.40;2.13;;;16.00;99.90;;;16.48;nan;100094.59;5010201;28;20634;-64
2022/10/24 05:21:45;;;;;;;6.40;1.87;;;16.00;99.90;;;16.39;nan;100094.69;5008255;28;20633;-64
2022/10/24 05:24:13;;;;;;;5.53;2.03;;;16.00;99.90;;;16.42;nan;100104.94;5007268;28;20736;-63
2022/10/24 05:26:40;;;;;;;5.37;2.33;;;16.00;99.90;;;16.43;nan;100107.41;5011256;28;21018;-64
2022/10/24 05:29:06;;;;;;;7.03;1.63;;;16.00;99.90;;;16.52;nan;100117.00;5011308;28;20991;-63
2022/10/24 05:31:38;;;;;;;1.60;1.43;;;16.00;99.90;;;16.29;nan;100121.19;5011209;28;20633;-64
2022/10/24 05:34:05;;;;;;;5.23;1.87;;;15.90;99.90;;;16.15;nan;100121.75;5009710;28;22820;-64
2022/10/24 05:36:32;;;;;;;4.50;1.73;;;15.80;99.90;;;16.23;nan;100119.16;5000809;28;21015;-65
2022/10/24 05:38:59;;;;;;;4.17;1.63;;;15.80;99.90;;;16.09;nan;100139.03;5005530;28;20636;-65
2022/10/24 05:41:26;;;;;;;1.93;1.40;;;15.80;99.90;;;16.16;nan;100136.59;5011456;28;20624;-63
2022/10/24 05:43:53;;;;;;;3.37;1.73;;;15.80;99.90;;;16.19;nan;100134.44;5010730;28;20665;-66
2022/10/24 05:46:20;;;;;;;3.23;1.73;;;15.80;99.90;;;16.24;nan;100140.06;5011887;28;20613;-64
2022/10/24 05:48:47;;;;;;;4.10;1.50;;;15.80;99.90;;;16.26;nan;100158.34;5011215;28;21257;-64
2022/10/24 05:51:14;;;;;;;5.50;2.07;;;15.80;99.90;;;16.20;nan;100158.97;5027729;28;20616;-64
2022/10/24 05:53:41;;;;;;;5.03;2.00;;;15.80;99.90;;;16.32;nan;100157.69;5026763;28;20677;-62
2022/10/24 05:56:08;;;;;;;6.17;2.00;;;15.90;99.90;;;16.48;nan;100156.94;5011130;28;20630;-66
2022/10/24 05:58:35;;;;;;;2.07;1.60;;;15.90;99.90;;;16.52;nan;100155.69;5010391;28;20634;-64
2022/10/24 06:01:02;;;;;;;12.87;2.47;;;16.00;99.90;;;16.72;nan;100160.50;5011018;28;20736;-64
2022/10/24 06:03:29;;;;;;;14.03;2.50;;;16.10;99.90;;;16.76;nan;100146.03;5010968;28;20665;-63
2022/10/24 06:06:07;;;;;;;2.63;1.90;;;16.20;99.90;;;16.75;nan;100154.94;5010849;28;20630;-63
2022/10/24 06:08:36;;;;;;;8.93;2.47;;;16.20;99.90;;;16.91;nan;100159.38;5002254;28;20629;-65
2022/10/24 06:11:03;;;;;;;6.60;2.40;;;16.30;99.90;;;16.84;nan;100164.50;5011446;28;20622;-64
2022/10/24 06:13:30;;;;;;;3.30;2.50;;;16.30;99.90;;;16.83;nan;100167.28;5010377;28;21213;-61
2022/10/24 06:16:01;;;;;;;6.17;2.23;;;16.30;99.90;;;16.78;nan;100164.31;5012571;28;20613;-64
2022/10/24 06:18:28;;;;;;;3.90;2.00;;;16.30;99.90;;;16.78;nan;100162.50;5011086;28;20629;-64
2022/10/24 06:20:58;;;;;;;5.70;2.00;;;16.30;99.90;;;16.84;nan;100169.78;5011880;28;20605;-64
2022/10/24 06:23:25;;;;;;;4.00;1.70;;;16.30;99.90;;;16.95;nan;100174.72;5008215;28;20668;-63
2022/10/24 06:25:52;;;;;;;12.17;2.10;;;16.40;99.90;;;16.85;nan;100165.31;4992569;28;20623;-66
2022/10/24 06:28:19;;;;;;;3.27;1.97;;;16.40;99.90;;;16.71;nan;100169.41;4995236;28;21259;-63
2022/10/24 06:30:49;;;;;;;4.50;1.87;;;16.30;99.90;;;16.80;nan;100172.88;5010049;28;20640;-66
2022/10/24 06:33:16;;;;;;;5.50;1.83;;;16.40;99.90;;;16.97;nan;100185.91;5021065;28;20672;-63
2022/10/24 06:35:43;;;;;;;5.37;1.83;;;16.40;99.90;;;17.10;nan;100180.16;5005788;28;20668;-64
2022/10/24 06:38:10;;;;;;;7.20;1.83;;;16.50;99.90;;;17.03;nan;100180.03;5010575;28;20634;-65
2022/10/24 06:40:39;;;;;;;5.27;1.60;;;16.50;99.90;;;17.02;nan;100170.44;5009712;28;20634;-64
2022/10/24 06:43:06;;;;;;;2.53;1.73;;;16.50;99.90;;;16.99;nan;100177.88;4997011;28;20700;-64
2022/10/24 06:45:33;;;;;;;3.60;1.67;;;16.50;99.90;;;17.08;nan;100186.63;5010367;28;20626;-65
2022/10/24 06:48:00;;;;;;;3.10;2.07;;;16.60;99.90;;;16.96;nan;100181.66;5010225;28;20642;-67
2022/10/24 06:50:27;;;;;;;4.47;1.87;;;16.50;99.90;;;16.93;nan;100176.69;5007936;28;20645;-65
2022/10/24 06:52:54;;;;;;;2.47;1.63;;;16.50;99.90;;;17.11;nan;100186.28;5009372;28;20678;-65
2022/10/24 06:55:21;;;;;;;6.07;2.20;;;16.60;99.90;;;17.08;nan;100190.88;5010434;28;20676;-65
2022/10/24 06:57:48;;;;;;;8.87;2.37;;;16.70;99.90;;;17.27;nan;100196.84;5010076;28;20648;-62
2022/10/24 07:00:15;;;;;;;6.13;2.07;;;16.70;99.90;;;17.26;nan;100203.94;4999938;28;20615;-67
2022/10/24 07:02:42;;;;;;;4.77;2.00;;;16.80;99.90;;;17.44;nan;100191.41;5009798;28;20636;-66
2022/10/24 07:05:11;;;;;;;4.20;1.70;;;16.90;99.90;;;17.38;nan;100194.69;5010366;28;20638;-66
2022/10/24 07:07:41;;;;;;;2.10;1.60;;;16.90;99.90;;;17.33;nan;100201.47;5010693;28;20687;-65
2022/10/24 07:10:13;;;;;;;2.90;1.00;;;16.90;99.90;;;17.41;nan;100201.47;5012788;28;20639;-62
2022/10/24 07:12:40;;;;;;;3.73;1.90;;;16.90;99.90;;;17.42;nan;100200.50;5029831;28;20653;-63
2022/10/24 07:15:08;;;;;;;2.63;1.53;;;16.90;99.90;;;17.53;nan;100203.66;5013479;28;20661;-63
2022/10/24 07:17:43;;;;;;;1.70;1.33;;;17.00;99.90;;;17.38;nan;100192.06;5014036;28;20651;-63
2022/10/24 07:20:12;;;;;;;1.80;1.10;;;17.00;99.90;;;17.41;nan;100196.19;5013281;28;20679;-63
2022/10/24 07:22:39;;;;;;;1.63;1.33;;;17.00;99.90;;;17.49;nan;100212.84;5014006;28;20708;-63
2022/10/24 07:25:07;;;;;;;8.07;1.87;;;17.00;99.90;;;17.44;nan;100217.78;5013402;28;21063;-64
2022/10/24 07:27:34;;;;;;;5.53;2.13;;;17.00;99.90;;;17.50;nan;100213.72;5001245;28;21267;-64
2022/10/24 07:30:04;;;;;;;3.63;1.43;;;17.00;99.90;;;17.54;nan;100210.59;5010266;28;20715;-64
2022/10/24 07:32:32;;;;;;;7.30;1.83;;;17.10;99.90;;;17.65;nan;100219.97;5013961;28;20652;-64
2022/10/24 07:34:59;;;;;;;5.50;2.23;;;17.10;99.90;;;17.60;nan;100231.03;5013965;28;20712;-63
2022/10/24 07:37:26;;;;;;;5.47;1.57;;;17.20;99.90;;;17.68;nan;100222.28;5014887;28;20610;-64
2022/10/24 07:39:53;;;;;;;3.13;1.97;;;17.20;99.90;;;17.76;nan;100232.81;5013684;28;20644;-63
2022/10/24 07:42:20;;;;;;;5.53;1.80;;;17.30;99.90;;;17.83;nan;100231.16;5014457;28;20613;-65
2022/10/24 07:44:47;;;;;;;5.90;1.63;;;17.30;99.90;;;17.68;nan;100235.47;5009090;28;21215;-63
2022/10/24 07:47:14;;;;;;;9.53;1.90;;;17.30;99.90;;;17.76;nan;100238.09;5000085;28;20640;-64
2022/10/24 07:49:40;;;;;;;2.70;1.50;;;17.30;99.90;;;17.82;nan;100224.25;5011657;28;20625;-64
2022/10/24 07:52:07;;;;;;;9.80;2.00;;;17.30;99.90;;;18.01;nan;100220.44;5012541;28;20699;-63
2022/10/24 07:54:34;;;;;;;5.43;1.97;;;17.40;99.90;;;18.07;nan;100222.41;5013080;28;20662;-63
2022/10/24 07:57:03;;;;;;;6.23;1.80;;;17.50;99.90;;;17.96;nan;100214.81;5013495;28;20636;-63
2022/10/24 07:59:30;;;;;;;4.20;2.00;;;17.50;99.90;;;18.01;nan;100210.72;5012730;28;20650;-67
2022/10/24 08:02:12;;;;;;;3.23;1.53;;;17.50;99.90;;;17.98;nan;100210.19;5012651;28;20648;-63
2022/10/24 08:04:39;;;;;;;2.40;1.77;;;17.50;99.90;;;17.90;nan;100213.69;5011817;28;21066;-63
2022/10/24 08:07:11;;;;;;;7.03;2.30;;;17.50;99.90;;;18.06;nan;100216.28;5011487;28;20630;-66
2022/10/24 08:09:42;;;;;;;4.90;2.00;;;17.60;99.90;;;18.27;nan;100205.19;5010975;28;20716;-65
2022/10/24 08:12:09;;;;;;;1.00;0.90;;;17.70;99.90;;;18.28;nan;100210.31;5012957;28;20614;-64
2022/10/24 08:14:38;;;;;;;3.90;1.40;;;17.70;99.90;;;18.21;nan;100214.59;5011471;28;20737;-67
2022/10/24 08:17:06;;;;;;;4.60;1.70;;;17.80;99.90;;;18.25;nan;100223.03;5012361;28;20633;-65
2022/10/24 08:19:33;;;;;;;1.20;1.10;;;17.70;99.90;;;18.37;nan;100217.22;5025298;28;21190;-65
2022/10/24 08:22:01;;;;;;;4.40;1.30;;;17.80;99.90;;;18.39;nan;100207.31;5011387;28;20943;-64
2022/10/24 08:24:28;;;;;;;2.93;1.97;;;17.90;99.90;;;18.46;nan;100208.28;5012068;28;20641;-63
2022/10/24 08:26:55;;;;;;;4.63;2.73;;;17.90;99.90;;;18.44;nan;100209.47;5012988;28;20619;-64
2022/10/24 08:29:22;;;;;;;2.63;0.90;;;17.80;99.90;;;18.37;nan;100209.28;5010603;28;20633;-63
2022/10/24 08:31:51;;;;;;;3.50;1.20;;;17.90;99.90;;;18.36;nan;100218.19;5012003;28;20636;-63
2022/10/24 08:34:19;;;;;;;2.80;1.60;;;17.90;99.90;;;18.42;nan;100206.16;5010226;28;21283;-64
2022/10/24 08:36:48;;;;;;;11.10;1.40;;;17.90;99.90;;;18.28;nan;100202.38;5011863;28;20625;-64
2022/10/24 08:39:16;;;;;;;1.73;1.37;;;17.90;99.90;;;18.32;nan;100208.97;5010764;28;20626;-66
2022/10/24 08:41:54;;;;;;;4.50;1.60;;;17.80;99.90;;;18.09;nan;100202.75;5010924;28;21193;-64
2022/10/24 08:44:40;;;;;;;3.10;1.27;;;17.80;99.90;;;18.31;nan;100204.69;5006718;28;21248;-64
2022/10/24 08:47:35;;;;;;;3.23;1.30;;;17.80;99.90;;;18.46;nan;100208.28;4995841;28;20623;-65
2022/10/24 08:50:24;;;;;;;6.60;1.20;;;17.90;99.90;;;18.42;nan;100214.88;4990505;28;20697;-66
2022/10/24 08:52:56;;;;;;;3.20;1.67;;;17.90;99.90;;;18.37;nan;100209.28;4951039;28;1092653;-67
2022/10/24 08:55:48;;;;;;;1.23;0.90;;;17.90;99.90;;;18.33;nan;100210.63;4997047;28;20781;-63
2022/10/24 08:58:40;;;;;;;6.80;1.50;;;17.90;99.90;;;18.43;nan;100205.97;5011715;28;20668;-64
2022/10/24 09:01:31;;;;;;;7.70;2.00;;;17.90;99.90;;;19.06;nan;100205.03;5011192;28;20610;-64
2022/10/24 09:04:04;;;;;;;5.43;1.80;;;18.10;99.90;;;19.54;nan;100204.72;5013471;28;20650;-64
2022/10/24 09:06:32;;;;;;;0.90;0.90;;;18.50;99.90;;;19.88;nan;100202.41;5012847;28;20644;-67
2022/10/24 09:09:02;;;;;;;6.53;1.70;;;18.90;99.90;;;20.32;nan;100199.00;5012215;28;21194;-64
2022/10/24 09:11:44;;;;;;;6.77;1.63;;;19.30;99.90;;;21.60;nan;100201.69;5011728;28;20606;-64
2022/10/24 09:14:20;;;;;;;7.27;2.07;;;20.10;99.90;;;23.08;nan;100203.81;5011701;28;20662;-63
2022/10/24 09:17:19;;;;;;;2.70;1.27;;;21.10;99.90;;;24.65;nan;100209.91;5010396;28;20655;-64
2022/10/24 09:19:59;;;;;;;4.60;2.10;;;22.10;99.90;;;27.50;nan;100221.03;4998728;28;20693;-64
2022/10/24 09:22:33;;;;;;;3.00;1.90;;;24.20;99.90;;;26.73;nan;100215.69;5002985;28;20625;-65
2022/10/24 09:25:04;;;;;;;5.60;1.93;;;25.20;99.90;;;25.62;nan;100211.44;5010977;28;21067;-63
2022/10/24 09:27:38;;;;;;;6.30;1.50;;;24.90;99.90;;;25.79;nan;100207.19;5012847;28;20625;-64
2022/10/24 09:30:13;;;;;;;7.57;1.67;;;24.60;99.90;;;27.23;nan;100217.09;5012240;28;21184;-64
2022/10/24 09:32:42;;;;;;;2.00;1.17;;;25.30;99.90;;;29.07;nan;100225.34;5010515;28;20715;-66
2022/10/24 09:35:20;;;;;;;5.50;1.77;;;26.50;99.90;;;31.12;nan;100217.94;5012160;28;20667;-63
2022/10/24 09:38:26;;;;;;;1.63;0.90;;;27.80;99.90;;;29.11;nan;100216.56;5010919;28;20617;-63
2022/10/24 09:40:57;;;;;;;1.67;1.20;;;28.40;97.80;;;26.69;nan;100215.31;5009862;28;20638;-64
2022/10/24 09:43:45;;;;;;;7.73;1.90;;;26.80;98.90;;;26.49;nan;100219.28;4993511;28;20654;-65
2022/10/24 09:46:46;;;;;;;6.67;1.67;;;25.80;99.90;;;25.03;nan;100219.78;4998497;28;20638;-65
2022/10/24 09:49:19;;;;;;;2.50;1.30;;;25.20;99.90;;;26.31;nan;100228.09;5012677;28;20632;-64
2022/10/24 09:51:59;;;;;;;2.23;1.63;;;25.10;99.90;;;26.46;nan;100230.41;5009788;28;20630;-64
2022/10/24 09:54:29;;;;;;;5.90;1.63;;;25.30;99.90;;;24.76;nan;100220.97;5040843;22;20791;-63
2022/10/24 09:57:23;;;;;;;3.63;1.40;;;24.40;99.90;;;23.37;nan;100232.75;5014277;28;20632;-65
2022/10/24 10:00:00;;;;;;;4.50;1.40;;;23.40;99.90;;;25.47;nan;100233.09;5016019;28;20640;-65
2022/10/24 10:02:28;;;;;;;1.37;1.27;;;23.80;99.90;;;28.65;nan;100245.44;5032280;28;20992;-65
2022/10/24 10:05:01;;;;;;;2.83;1.23;;;25.60;99.90;;;28.55;nan;100243.34;5012356;28;20669;-64
2022/10/24 10:07:40;;;;;;;6.17;1.90;;;26.50;99.90;;;28.60;nan;100248.84;5012419;28;21014;-65
2022/10/24 10:10:35;;;;;;;9.00;2.30;;;26.90;99.90;;;29.56;nan;100234.59;4993088;28;20634;-65
2022/10/24 10:13:11;;;;;;;4.60;1.23;;;28.00;98.20;;;31.06;nan;100237.81;4994086;28;20660;-65
2022/10/24 10:15:46;;;;;;;6.00;1.60;;;28.90;96.20;;;32.07;nan;100248.47;5009402;28;20672;-65
2022/10/24 10:18:26;;;;;;;3.07;1.67;;;29.60;94.40;;;31.62;nan;100255.41;4997608;28;20636;-66
2022/10/24 10:21:09;;;;;;;2.10;1.40;;;30.00;92.40;;;29.58;nan;100240.53;4994773;28;21061;-65
2022/10/24 10:23:43;;;;;;;1.60;0.93;;;29.00;93.00;;;-141.50;100.00;62695.63;4975651;28;20647;-64
2022/10/24 10:26:45;;;;;;;14.47;2.20;;;26.90;95.90;;;-141.50;100.00;62695.63;4990399;28;20610;-64
2022/10/24 10:29:18;;;;;;;4.50;1.23;;;25.00;99.90;;;-141.50;100.00;62695.63;4996865;28;21266;-65
2022/10/24 10:32:02;;;;;;;8.83;1.60;;;23.90;99.90;;;;;;5010588;28;20661;-65
2022/10/24 10:34:39;;;;;;;2.93;1.37;;;23.30;99.90;;;;;;5007897;28;20653;-65
2022/10/24 10:37:24;;;;;;;4.33;1.33;;;22.70;99.90;;;;;;5010931;28;20638;-65
2022/10/24 10:40:18;;;;;;;1.23;1.00;;;22.20;99.90;;;-141.50;nan;62695.63;5011105;28;20679;-65
2022/10/24 10:43:12;;;;;;;1.43;0.97;;;21.80;99.90;;;-141.50;nan;62695.63;5005144;28;21186;-65
2022/10/24 10:45:51;;;;;;;3.10;1.13;;;21.30;99.90;;;;;;4995514;28;21038;-64
2022/10/24 10:48:43;;;;;;;2.40;1.20;;;21.10;99.90;;;;;;5010858;28;20608;-65